createdAt,value
2022-10-01T00:02:10.173Z,100702.40
2022-10-01T00:04:39.912Z,100703.60
2022-10-01T00:07:15.325Z,100702.40
2022-10-01T00:09:44.432Z,100696.00
2022-10-01T00:12:16.120Z,100695.20
2022-10-01T00:14:45.315Z,100692.60
2022-10-01T00:17:14.064Z,100692.80
2022-10-01T00:19:43.264Z,100691.00
2022-10-01T00:22:12.153Z,100687.40
2022-10-01T00:24:41.107Z,100687.40
2022-10-01T00:27:11.271Z,100682.60
2022-10-01T00:29:41.387Z,100681.20
2022-10-01T00:32:10.281Z,100680.80
2022-10-01T00:34:39.680Z,100681.20
2022-10-01T00:37:10.612Z,100681.80
2022-10-01T00:39:39.408Z,100682.20
2022-10-01T00:42:30.524Z,100677.80
2022-10-01T00:45:02.564Z,100672.80
2022-10-01T00:47:48.166Z,100671.40
2022-10-01T00:50:28.940Z,100674.40
2022-10-01T00:53:01.327Z,100676.40
2022-10-01T00:55:38.439Z,100670.60
2022-10-01T00:58:10.569Z,100672.20
2022-10-01T01:00:40.885Z,100673.40
2022-10-01T01:03:11.010Z,100667.60
2022-10-01T01:05:40.409Z,100671.40
2022-10-01T01:08:09.809Z,100664.00
2022-10-01T01:11:10.137Z,100660.60
2022-10-01T01:14:07.393Z,100659.00
2022-10-01T01:17:00.451Z,100657.00
2022-10-01T01:20:23.409Z,100659.00
2022-10-01T01:23:03.052Z,100654.80
2022-10-01T01:25:46.083Z,100658.80
2022-10-01T01:28:35.747Z,100662.40
2022-10-01T01:31:11.555Z,100657.80
2022-10-01T01:33:44.084Z,100655.40
2022-10-01T01:36:32.944Z,100650.60
2022-10-01T01:39:08.590Z,100644.60
2022-10-01T01:41:43.528Z,100648.20
2022-10-01T01:44:13.162Z,100642.40
2022-10-01T01:46:46.613Z,100645.40
2022-10-01T01:49:17.839Z,100647.60
2022-10-01T01:52:08.171Z,100645.40
2022-10-01T01:54:37.161Z,100641.20
2022-10-01T01:57:07.760Z,100642.80
2022-10-01T01:59:37.041Z,100638.60
2022-10-01T02:02:08.104Z,100639.60
2022-10-01T02:04:51.464Z,100638.40
2022-10-01T02:07:40.016Z,100637.80
2022-10-01T02:10:42.804Z,100629.80
2022-10-01T02:13:24.503Z,100629.40
2022-10-01T02:16:21.331Z,100633.00
2022-10-01T02:19:06.471Z,100626.80
2022-10-01T02:22:00.699Z,100620.40
2022-10-01T02:24:57.401Z,100620.00
2022-10-01T02:27:33.299Z,100617.80
2022-10-01T02:30:08.085Z,100613.20
2022-10-01T02:32:40.807Z,100613.60
2022-10-01T02:35:14.941Z,100618.00
2022-10-01T02:37:46.523Z,100612.40
2022-10-01T02:40:22.295Z,100614.00
2022-10-01T02:42:57.159Z,100618.80
2022-10-01T02:45:27.839Z,100620.00
2022-10-01T02:48:10.324Z,100615.80
2022-10-01T02:50:57.592Z,100614.60
2022-10-01T02:53:36.795Z,100616.00
2022-10-01T02:56:07.851Z,100614.40
2022-10-01T02:58:36.789Z,100612.80
2022-10-01T03:01:06.806Z,100612.80
2022-10-01T03:03:35.594Z,100613.00
2022-10-01T03:06:04.587Z,100609.60
2022-10-01T03:08:33.490Z,100608.40
2022-10-01T03:11:02.584Z,100606.40
2022-10-01T03:13:31.769Z,100609.80
2022-10-01T03:16:00.945Z,100606.20
2022-10-01T03:18:29.764Z,100605.00
2022-10-01T03:20:59.055Z,100605.00
2022-10-01T03:23:27.827Z,100601.40
2022-10-01T03:25:56.546Z,100605.00
2022-10-01T03:28:25.276Z,100599.60
2022-10-01T03:31:05.419Z,100600.00
2022-10-01T03:33:34.425Z,100603.40
2022-10-01T03:36:05.003Z,100600.80
2022-10-01T03:38:33.586Z,100601.40
2022-10-01T03:41:02.819Z,100596.40
2022-10-01T03:43:31.919Z,100598.40
2022-10-01T03:46:02.048Z,100595.40
2022-10-01T03:48:31.234Z,100598.80
2022-10-01T03:51:00.410Z,100603.00
2022-10-01T03:53:31.671Z,100605.60
2022-10-01T03:56:01.351Z,100605.60
2022-10-01T03:58:30.340Z,100610.20
2022-10-01T04:01:00.804Z,100610.40
2022-10-01T04:03:31.400Z,100598.00
2022-10-01T04:06:00.086Z,100597.40
2022-10-01T04:08:29.287Z,100592.80
2022-10-01T04:10:59.201Z,100588.80
2022-10-01T04:13:30.343Z,100581.00
2022-10-01T04:15:59.282Z,100582.40
2022-10-01T04:18:28.093Z,100581.20
2022-10-01T04:20:56.911Z,100580.40
2022-10-01T04:23:26.739Z,100574.20
2022-10-01T04:26:00.165Z,100574.40
2022-10-01T04:28:30.202Z,100576.00
2022-10-01T04:31:18.523Z,100579.60
2022-10-01T04:33:48.297Z,100584.20
2022-10-01T04:36:18.012Z,100579.80
2022-10-01T04:38:47.329Z,100580.60
2022-10-01T04:41:15.993Z,100585.00
2022-10-01T04:43:45.310Z,100582.00
2022-10-01T04:46:15.347Z,100580.20
2022-10-01T04:48:44.257Z,100579.40
2022-10-01T04:51:12.992Z,100574.60
2022-10-01T04:53:42.190Z,100571.80
2022-10-01T04:56:11.188Z,100564.40
2022-10-01T04:58:40.585Z,100567.60
2022-10-01T05:01:10.155Z,100567.80
2022-10-01T05:03:39.393Z,100566.20
2022-10-01T05:06:08.078Z,100566.00
2022-10-01T05:08:38.017Z,100562.60
2022-10-01T05:11:07.195Z,100555.60
2022-10-01T05:13:37.259Z,100557.40
2022-10-01T05:16:06.993Z,100553.80
2022-10-01T05:18:35.875Z,100553.60
2022-10-01T05:21:10.177Z,100552.00
2022-10-01T05:23:39.292Z,100551.40
2022-10-01T05:26:08.727Z,100551.80
2022-10-01T05:28:37.557Z,100551.60
2022-10-01T05:31:06.883Z,100547.80
2022-10-01T05:33:35.711Z,100550.20
2022-10-01T05:36:07.466Z,100547.40
2022-10-01T05:38:39.427Z,100544.00
2022-10-01T05:41:08.689Z,100541.60
2022-10-01T05:43:37.423Z,100543.20
2022-10-01T05:46:06.493Z,100533.20
2022-10-01T05:48:37.200Z,100527.60
2022-10-01T05:51:08.481Z,100526.00
2022-10-01T05:53:38.624Z,100523.80
2022-10-01T05:56:08.542Z,100522.00
2022-10-01T05:58:37.108Z,100517.20
2022-10-01T06:01:06.307Z,100515.20
2022-10-01T06:03:35.300Z,100508.80
2022-10-01T06:06:06.040Z,100505.60
2022-10-01T06:08:37.941Z,100498.00
2022-10-01T06:11:06.946Z,100488.20
2022-10-01T06:13:36.273Z,100489.20
2022-10-01T06:16:05.003Z,100485.00
2022-10-01T06:18:34.482Z,100482.00
2022-10-01T06:21:03.578Z,100477.60
2022-10-01T06:23:32.264Z,100479.20
2022-10-01T06:26:03.409Z,100471.20
2022-10-01T06:28:33.148Z,100470.80
2022-10-01T06:31:03.233Z,100467.60
2022-10-01T06:33:32.231Z,100461.80
2022-10-01T06:36:01.125Z,100457.80
2022-10-01T06:38:31.936Z,100455.00
2022-10-01T06:41:06.910Z,100450.80
2022-10-01T06:43:35.902Z,100445.80
2022-10-01T06:46:06.036Z,100446.00
2022-10-01T06:48:36.824Z,100443.40
2022-10-01T06:51:06.200Z,100438.40
2022-10-01T06:53:35.319Z,100432.40
2022-10-01T06:56:07.299Z,100427.20
2022-10-01T06:58:37.713Z,100429.80
2022-10-01T07:01:06.777Z,100415.20
2022-10-01T07:03:36.293Z,100416.00
2022-10-01T07:06:08.889Z,100407.40
2022-10-01T07:08:37.493Z,100400.00
2022-10-01T07:11:06.382Z,100395.00
2022-10-01T07:13:35.415Z,100388.40
2022-10-01T07:16:05.151Z,100380.80
2022-10-01T07:18:34.283Z,100384.00
2022-10-01T07:21:03.584Z,100382.80
2022-10-01T07:23:32.167Z,100382.40
2022-10-01T07:26:00.648Z,100380.40
2022-10-01T07:28:29.629Z,100368.60
2022-10-01T07:31:06.876Z,100365.00
2022-10-01T07:33:35.411Z,100362.20
2022-10-01T07:36:07.643Z,100362.60
2022-10-01T07:38:36.178Z,100355.20
2022-10-01T07:41:05.156Z,100355.20
2022-10-01T07:43:34.964Z,100343.60
2022-10-01T07:46:03.748Z,100342.00
2022-10-01T07:48:33.060Z,100339.40
2022-10-01T07:51:01.954Z,100339.40
2022-10-01T07:53:30.942Z,100337.40
2022-10-01T07:56:03.844Z,100330.40
2022-10-01T07:58:32.491Z,100321.40
2022-10-01T08:01:04.993Z,100324.20
2022-10-01T08:03:35.274Z,100318.40
2022-10-01T08:06:07.346Z,100321.20
2022-10-01T08:08:36.447Z,100318.80
2022-10-01T08:11:05.058Z,100323.20
2022-10-01T08:13:35.245Z,100316.00
2022-10-01T08:16:07.328Z,100318.00
2022-10-01T08:18:41.803Z,100312.20
2022-10-01T08:21:17.930Z,100305.00
2022-10-01T08:23:49.921Z,100299.00
2022-10-01T08:26:22.813Z,100300.40
2022-10-01T08:28:55.664Z,100293.40
2022-10-01T08:31:27.803Z,100286.00
2022-10-01T08:33:59.201Z,100284.80
2022-10-01T08:36:31.619Z,100286.40
2022-10-01T08:39:03.414Z,100283.60
2022-10-01T08:42:01.385Z,100277.20
2022-10-01T08:44:42.052Z,100277.80
2022-10-01T08:47:38.594Z,100277.60
2022-10-01T08:50:40.451Z,100279.20
2022-10-01T08:53:23.575Z,100278.00
2022-10-01T08:55:54.619Z,100280.00
2022-10-01T08:58:45.558Z,100273.00
2022-10-01T09:01:14.448Z,100262.60
2022-10-01T09:03:43.107Z,100259.20
2022-10-01T09:06:23.659Z,100257.20
2022-10-01T09:09:35.934Z,100256.40
2022-10-01T09:12:37.026Z,100248.80
2022-10-01T09:15:27.413Z,100250.00
2022-10-01T09:18:26.897Z,100250.00
2022-10-01T09:21:02.041Z,100241.40
2022-10-01T09:23:46.665Z,100242.20
2022-10-01T09:26:23.550Z,100238.40
2022-10-01T09:29:01.963Z,100228.00
2022-10-01T09:31:46.383Z,100227.80
2022-10-01T09:34:45.543Z,100224.00
2022-10-01T09:37:43.389Z,100222.20
2022-10-01T09:40:41.065Z,100214.20
2022-10-01T09:43:13.530Z,100208.00
2022-10-01T09:45:45.652Z,100203.40
2022-10-01T09:48:28.153Z,100206.60
2022-10-01T09:51:07.388Z,100195.80
2022-10-01T09:54:00.212Z,100188.80
2022-10-01T09:57:07.428Z,100187.60
2022-10-01T10:00:10.101Z,100178.40
2022-10-01T10:02:49.262Z,100175.00
2022-10-01T10:05:23.746Z,100172.80
2022-10-01T10:08:04.136Z,100171.60
2022-10-01T10:10:35.916Z,100165.40
2022-10-01T10:13:11.027Z,100162.20
2022-10-01T10:16:00.699Z,100155.60
2022-10-01T10:18:37.816Z,100154.40
2022-10-01T10:21:17.011Z,100149.80
2022-10-01T10:24:01.584Z,100148.00
2022-10-01T10:26:42.622Z,100138.80
2022-10-01T10:29:31.347Z,100139.40
2022-10-01T10:32:07.563Z,100133.00
2022-10-01T10:34:47.214Z,100135.60
2022-10-01T10:37:20.555Z,100133.00
2022-10-01T10:39:52.673Z,100120.20
2022-10-01T10:42:25.560Z,100120.20
2022-10-01T10:45:02.693Z,100107.40
2022-10-01T10:47:33.479Z,100108.20
2022-10-01T10:50:06.791Z,100106.40
2022-10-01T10:52:39.398Z,100103.60
2022-10-01T10:55:28.721Z,100103.40
2022-10-01T10:58:15.586Z,100102.60
2022-10-01T11:00:52.831Z,100105.80
2022-10-01T11:03:26.746Z,100108.60
2022-10-01T11:06:20.503Z,100102.00
2022-10-01T11:08:59.795Z,100099.60
2022-10-01T11:11:45.024Z,100097.80
2022-10-01T11:14:23.820Z,100099.60
2022-10-01T11:17:36.656Z,100096.60
2022-10-01T11:20:19.833Z,100086.60
2022-10-01T11:23:39.976Z,100082.20
2022-10-01T11:26:50.645Z,100085.60
2022-10-01T11:29:48.412Z,100083.00
2022-10-01T11:32:34.609Z,100078.80
2022-10-01T11:35:30.432Z,100067.00
2022-10-01T11:38:46.221Z,100065.20
2022-10-01T11:41:41.328Z,100059.60
2022-10-01T11:44:24.839Z,100055.80
2022-10-01T11:47:02.866Z,100056.80
2022-10-01T11:50:06.401Z,100060.80
2022-10-01T11:52:46.859Z,100063.00
2022-10-01T11:56:06.103Z,100058.60
2022-10-01T11:59:03.155Z,100064.60
2022-10-01T12:01:52.314Z,100062.80
2022-10-01T12:04:42.156Z,100068.20
2022-10-01T12:08:14.380Z,100061.60
2022-10-01T12:11:01.394Z,100063.20
2022-10-01T12:13:46.678Z,100068.00
2022-10-01T12:16:37.618Z,100071.80
2022-10-01T12:19:19.372Z,100067.60
2022-10-01T12:22:00.141Z,100074.40
2022-10-01T12:24:37.069Z,100080.20
2022-10-01T12:27:48.406Z,100077.40
2022-10-01T12:30:23.337Z,100075.80
2022-10-01T12:33:31.960Z,100070.60
2022-10-01T12:36:25.427Z,100081.40
2022-10-01T12:39:08.653Z,100060.80
2022-10-01T12:41:52.392Z,100059.20
2022-10-01T12:45:16.993Z,100064.60
2022-10-01T12:48:16.090Z,100062.80
2022-10-01T12:51:15.496Z,100055.20
2022-10-01T12:54:05.175Z,100054.40
2022-10-01T12:56:50.038Z,100048.40
2022-10-01T12:59:51.598Z,100045.80
2022-10-01T13:02:42.299Z,100043.80
2022-10-01T13:06:08.023Z,100042.20
2022-10-01T13:09:13.996Z,100041.00
2022-10-01T13:12:36.124Z,100034.40
2022-10-01T13:15:12.081Z,100038.80
2022-10-01T13:17:52.846Z,100030.20
2022-10-01T13:20:41.399Z,100033.20
2022-10-01T13:23:18.994Z,100031.00
2022-10-01T13:26:28.025Z,100028.60
2022-10-01T13:29:25.384Z,100034.40
2022-10-01T13:32:02.677Z,100036.40
2022-10-01T13:34:41.106Z,100038.40
2022-10-01T13:37:18.988Z,100033.20
2022-10-01T13:39:48.282Z,100033.40
2022-10-01T13:42:27.667Z,100034.80
2022-10-01T13:45:41.265Z,100032.20
2022-10-01T13:48:32.667Z,100027.40
2022-10-01T13:51:11.921Z,100027.80
2022-10-01T13:53:43.267Z,100030.20
2022-10-01T13:56:15.613Z,100030.00
2022-10-01T13:58:46.490Z,100034.00
2022-10-01T14:01:24.142Z,100038.00
2022-10-01T14:04:28.800Z,100027.00
2022-10-01T14:07:19.703Z,100028.20
2022-10-01T14:09:57.711Z,100023.40
2022-10-01T14:12:54.559Z,100023.00
2022-10-01T14:16:06.225Z,100020.80
2022-10-01T14:18:43.136Z,100020.40
2022-10-01T14:21:48.891Z,100015.40
2022-10-01T14:24:45.734Z,100012.00
2022-10-01T14:28:00.182Z,100004.60
2022-10-01T14:30:43.116Z,100005.00
2022-10-01T14:33:52.665Z,100004.00
2022-10-01T14:36:41.418Z,100002.60
2022-10-01T14:39:29.362Z,99995.20
2022-10-01T14:41:58.658Z,100000.20
2022-10-01T14:44:46.492Z,99994.80
2022-10-01T14:47:28.101Z,99988.80
2022-10-01T14:49:56.657Z,99986.80
2022-10-01T14:52:31.422Z,99991.40
2022-10-01T14:55:07.234Z,99989.60
2022-10-01T14:57:49.682Z,99986.80
2022-10-01T15:00:28.483Z,99988.20
2022-10-01T15:03:15.388Z,99991.00
2022-10-01T15:05:46.746Z,99991.40
2022-10-01T15:08:16.857Z,99986.80
2022-10-01T15:10:58.452Z,99984.60
2022-10-01T15:13:35.145Z,99983.80
2022-10-01T15:16:04.963Z,99980.20
2022-10-01T15:18:33.726Z,99982.20
2022-10-01T15:21:08.499Z,99977.80
2022-10-01T15:23:41.444Z,99979.20
2022-10-01T15:26:18.820Z,99976.80
2022-10-01T15:28:47.887Z,99975.60
2022-10-01T15:31:17.505Z,99979.20
2022-10-01T15:33:46.414Z,99980.40
2022-10-01T15:36:19.787Z,99981.00
2022-10-01T15:38:49.419Z,99975.80
2022-10-01T15:41:33.154Z,99982.60
2022-10-01T15:44:05.494Z,99983.00
2022-10-01T15:46:36.162Z,99979.00
2022-10-01T15:49:24.291Z,99978.40
2022-10-01T15:52:22.687Z,99980.40
2022-10-01T15:55:01.309Z,99983.40
2022-10-01T15:57:34.199Z,99986.60
2022-10-01T16:00:02.773Z,99982.60
2022-10-01T16:02:34.218Z,99980.00
2022-10-01T16:05:09.772Z,99982.80
2022-10-01T16:07:40.506Z,99980.60
2022-10-01T16:10:38.265Z,99982.00
2022-10-01T16:13:41.160Z,99985.80
2022-10-01T16:16:29.976Z,99983.40
2022-10-01T16:19:24.000Z,99992.00
2022-10-01T16:22:21.710Z,99986.00
2022-10-01T16:25:26.395Z,99989.00
2022-10-01T16:28:04.357Z,99992.80
2022-10-01T16:30:34.461Z,99993.60
2022-10-01T16:33:06.315Z,99996.60
2022-10-01T16:35:40.962Z,99994.80
2022-10-01T16:38:09.896Z,99992.80
2022-10-01T16:40:42.676Z,99995.60
2022-10-01T16:43:18.951Z,99998.40
2022-10-01T16:45:47.674Z,99997.60
2022-10-01T16:48:24.520Z,99993.00
2022-10-01T16:50:54.114Z,99992.40
2022-10-01T16:53:24.955Z,100001.80
2022-10-01T16:55:55.070Z,100001.80
2022-10-01T16:58:23.727Z,99999.80
2022-10-01T17:00:52.514Z,100003.80
2022-10-01T17:03:22.784Z,100005.80
2022-10-01T17:05:51.350Z,100007.60
2022-10-01T17:08:19.833Z,100006.00
2022-10-01T17:11:00.096Z,100008.60
2022-10-01T17:13:34.276Z,100017.80
2022-10-01T17:16:06.315Z,100011.80
2022-10-01T17:18:35.018Z,100016.20
2022-10-01T17:21:06.062Z,100015.60
2022-10-01T17:23:36.368Z,100012.80
2022-10-01T17:26:07.371Z,100017.80
2022-10-01T17:28:36.148Z,100021.80
2022-10-01T17:31:07.871Z,100019.00
2022-10-01T17:33:37.311Z,100019.40
2022-10-01T17:36:09.032Z,100015.80
2022-10-01T17:38:40.829Z,100020.00
2022-10-01T17:41:09.819Z,100021.40
2022-10-01T17:43:39.697Z,100031.00
2022-10-01T17:46:08.455Z,100032.00
2022-10-01T17:48:37.004Z,100029.60
2022-10-01T17:51:09.207Z,100027.40
2022-10-01T17:53:42.429Z,100030.80
2022-10-01T17:56:18.295Z,100032.60
2022-10-01T17:58:47.415Z,100033.20
2022-10-01T18:01:21.531Z,100038.00
2022-10-01T18:03:55.791Z,100044.80
2022-10-01T18:06:27.658Z,100042.80
2022-10-01T18:08:56.888Z,100037.20
2022-10-01T18:11:29.114Z,100045.20
2022-10-01T18:13:57.965Z,100052.60
2022-10-01T18:16:27.666Z,100050.20
2022-10-01T18:21:49.023Z,100056.20
2022-10-01T18:24:18.281Z,100055.40
2022-10-01T18:26:46.997Z,100051.80
2022-10-01T18:29:25.577Z,100048.00
2022-10-01T18:32:12.834Z,100048.20
2022-10-01T18:34:58.109Z,100049.40
2022-10-01T18:37:49.467Z,100055.80
2022-10-01T18:40:21.501Z,100059.20
2022-10-01T18:42:55.740Z,100057.40
2022-10-01T18:46:02.091Z,100057.80
2022-10-01T18:49:17.257Z,100059.60
2022-10-01T18:52:10.822Z,100054.40
2022-10-01T18:55:02.037Z,100053.60
2022-10-01T18:57:50.895Z,100066.80
2022-10-01T19:00:23.782Z,100070.40
2022-10-01T19:03:25.861Z,100072.40
2022-10-01T19:06:23.107Z,100061.20
2022-10-01T19:09:00.495Z,100067.40
2022-10-01T19:12:15.774Z,100072.60
2022-10-01T19:15:19.378Z,100070.20
2022-10-01T19:18:29.351Z,100072.80
2022-10-01T19:21:45.941Z,100076.20
2022-10-01T19:24:29.583Z,100080.00
2022-10-01T19:27:27.551Z,100078.20
2022-10-01T19:30:09.759Z,100079.00
2022-10-01T19:33:06.707Z,100084.00
2022-10-01T19:35:59.135Z,100085.00
2022-10-01T19:38:37.956Z,100089.60
2022-10-01T19:41:48.600Z,100091.20
2022-10-01T19:44:54.907Z,100091.00
2022-10-01T19:47:47.557Z,100088.60
2022-10-01T19:50:33.677Z,100086.20
2022-10-01T19:53:05.516Z,100095.60
2022-10-01T19:55:39.108Z,100101.00
2022-10-01T19:58:19.104Z,100107.00
2022-10-01T20:00:56.589Z,100107.20
2022-10-01T20:03:40.057Z,100108.20
2022-10-01T20:06:31.408Z,100112.40
2022-10-01T20:09:08.184Z,100114.60
2022-10-01T20:11:50.287Z,100119.80
2022-10-01T20:15:07.612Z,100117.80
2022-10-01T20:18:28.132Z,100120.20
2022-10-01T20:21:24.653Z,100122.20
2022-10-01T20:24:39.933Z,100129.00
2022-10-01T20:27:47.112Z,100131.20
2022-10-01T20:30:22.799Z,100138.00
2022-10-01T20:33:07.450Z,100140.60
2022-10-01T20:36:35.287Z,100143.40
2022-10-01T20:39:25.798Z,100142.20
2022-10-01T20:41:57.368Z,100144.20
2022-10-01T20:44:38.512Z,100154.20
2022-10-01T20:47:25.485Z,100158.80
2022-10-01T20:50:11.770Z,100165.80
2022-10-01T20:53:10.129Z,100169.40
2022-10-01T20:56:02.749Z,100167.20
2022-10-01T20:58:44.878Z,100170.40
2022-10-01T21:01:23.875Z,100173.00
2022-10-01T21:04:06.650Z,100174.40
2022-10-01T21:06:56.294Z,100180.40
2022-10-01T21:09:52.833Z,100185.20
2022-10-01T21:12:46.608Z,100187.00
2022-10-01T21:15:15.498Z,100194.20
2022-10-01T21:17:44.081Z,100200.60
2022-10-01T21:20:53.014Z,100207.40
2022-10-01T21:23:38.128Z,100211.60
2022-10-01T21:26:22.954Z,100213.40
2022-10-01T21:29:17.236Z,100224.20
2022-10-01T21:32:31.694Z,100227.40
2022-10-01T21:35:43.333Z,100228.80
2022-10-01T21:38:45.156Z,100235.60
2022-10-01T21:41:34.317Z,100245.00
2022-10-01T21:44:41.912Z,100245.00
2022-10-01T21:47:56.339Z,100249.40
2022-10-01T21:50:41.221Z,100252.40
2022-10-01T21:54:00.930Z,100255.60
2022-10-01T21:56:49.881Z,100261.40
2022-10-01T21:59:28.396Z,100266.00
2022-10-01T22:02:19.794Z,100267.00
2022-10-01T22:04:58.252Z,100269.80
2022-10-01T22:07:52.208Z,100279.20
2022-10-01T22:10:34.415Z,100279.80
2022-10-01T22:13:11.702Z,100286.20
2022-10-01T22:15:44.994Z,100289.60
2022-10-01T22:18:40.714Z,100291.80
2022-10-01T22:21:41.608Z,100296.80
2022-10-01T22:24:18.249Z,100300.20
2022-10-01T22:27:21.472Z,100302.80
2022-10-01T22:30:00.655Z,100312.60
2022-10-01T22:32:40.607Z,100317.60
2022-10-01T22:35:27.418Z,100322.00
2022-10-01T22:38:18.938Z,100326.60
2022-10-01T22:40:57.148Z,100337.60
2022-10-01T22:43:25.759Z,100338.40
2022-10-01T22:46:17.765Z,100344.80
2022-10-01T22:49:05.296Z,100352.40
2022-10-01T22:51:50.171Z,100361.60
2022-10-01T22:55:07.898Z,100363.60
2022-10-01T22:57:51.636Z,100368.80
2022-10-01T23:00:21.651Z,100367.80
2022-10-01T23:03:48.610Z,100369.00
2022-10-01T23:07:02.215Z,100375.20
2022-10-01T23:09:41.936Z,100379.60
2022-10-01T23:12:53.454Z,100384.20
2022-10-01T23:15:45.115Z,100395.20
2022-10-01T23:18:53.419Z,100396.80
2022-10-01T23:21:33.882Z,100404.00
2022-10-01T23:24:28.486Z,100416.00
2022-10-01T23:27:32.054Z,100419.20
2022-10-01T23:30:12.079Z,100422.40
2022-10-01T23:33:10.818Z,100430.20
2022-10-01T23:35:48.932Z,100434.60
2022-10-01T23:38:30.208Z,100437.20
2022-10-01T23:41:10.179Z,100438.60
2022-10-01T23:43:48.864Z,100441.80
2022-10-01T23:46:35.810Z,100447.40
2022-10-01T23:49:18.550Z,100452.60
2022-10-01T23:52:15.151Z,100460.20
2022-10-01T23:54:55.456Z,100458.60
2022-10-01T23:57:34.408Z,100461.40
